Time;durP1;ratioP1;P1;durP2;ratioP2;P2;SDS_P1;SDS_P2;PMS_P1;PMS_P2;Temp;Humidity;BMP_temperature;BMP_pressure;BME280_temperature;BME280_humidity;BME280_pressure;Samples;Min_cycle;Max_cycle;Signal;HPM_P1;HPM_P2
2022/08/17 00:02:04;;;;;;;10.27;9.10;;;20.00;99.90;;;;;;5087931;28;20031;-47
2022/08/17 00:04:31;;;;;;;12.30;9.68;;;20.00;99.90;;;;;;5088413;28;20020;-46
2022/08/17 00:06:56;;;;;;;10.40;9.07;;;20.00;99.90;;;;;;5088740;28;20032;-46
2022/08/17 00:09:22;;;;;;;9.90;8.90;;;20.00;99.90;;;;;;5088242;28;20097;-47
2022/08/17 00:11:48;;;;;;;12.50;8.82;;;20.00;99.90;;;;;;5087755;28;20063;-45
2022/08/17 00:14:17;;;;;;;9.30;8.40;;;20.00;99.90;;;;;;5087218;28;20024;-46
2022/08/17 00:16:48;;;;;;;10.52;9.55;;;20.00;99.90;;;;;;5088243;28;20028;-46
2022/08/17 00:19:17;;;;;;;11.32;9.55;;;20.00;99.90;;;;;;5088403;28;20024;-45
2022/08/17 00:21:45;;;;;;;10.60;9.13;;;19.90;99.90;;;;;;5087634;28;20024;-46
2022/08/17 00:24:11;;;;;;;10.57;8.65;;;19.90;99.90;;;;;;5084692;28;20155;-45
2022/08/17 00:26:37;;;;;;;9.95;9.05;;;19.90;99.90;;;;;;5078358;28;20458;-47
2022/08/17 00:29:03;;;;;;;9.52;8.55;;;19.80;99.90;;;;;;5088299;28;20070;-48
2022/08/17 00:31:29;;;;;;;10.30;9.30;;;19.80;99.90;;;;;;5087511;28;20035;-49
2022/08/17 00:33:55;;;;;;;10.70;9.52;;;19.80;99.90;;;;;;5088423;28;20028;-48
2022/08/17 00:36:22;;;;;;;12.00;9.52;;;19.70;99.90;;;;;;5088546;28;20463;-46
2022/08/17 00:38:48;;;;;;;10.57;9.48;;;19.70;99.90;;;;;;5088020;28;20525;-46
2022/08/17 00:41:18;;;;;;;10.63;9.20;;;19.70;99.90;;;;;;5087242;28;20097;-46
2022/08/17 00:43:53;;;;;;;11.15;10.00;;;19.70;99.90;;;;;;5088323;28;20020;-46
2022/08/17 00:46:28;;;;;;;12.30;10.07;;;19.60;99.90;;;;;;5087122;28;20364;-47
2022/08/17 00:48:56;;;;;;;12.68;8.57;;;19.60;99.90;;;;;;5086899;28;20077;-46
2022/08/17 00:51:36;;;;;;;10.10;9.20;;;19.60;99.90;;;;;;5087386;28;20055;-46
2022/08/17 00:54:19;;;;;;;12.57;10.18;;;19.60;99.90;;;;;;5087209;28;20158;-46
2022/08/17 00:56:52;;;;;;;10.68;9.68;;;19.50;99.90;;;;;;5067577;28;20039;-45
2022/08/17 00:59:21;;;;;;;10.77;9.52;;;19.60;99.90;;;;;;5066453;28;20020;-46
2022/08/17 01:01:49;;;;;;;11.55;9.57;;;19.60;99.90;;;;;;5066837;28;20033;-45
2022/08/17 01:04:16;;;;;;;11.85;9.65;;;19.60;99.90;;;;;;5069117;28;20054;-46
2022/08/17 01:06:48;;;;;;;10.15;9.15;;;19.50;99.90;;;;;;5071474;28;20033;-47
2022/08/17 01:09:16;;;;;;;13.18;10.75;;;19.60;99.90;;;;;;5071365;28;20625;-47
2022/08/17 01:11:44;;;;;;;15.60;10.68;;;19.50;99.90;;;;;;5070571;28;20480;-46
2022/08/17 01:14:10;;;;;;;15.63;9.75;;;19.50;99.90;;;;;;5071064;28;20035;-46
2022/08/17 01:16:36;;;;;;;11.98;10.05;;;19.50;99.90;;;;;;5069671;28;20029;-46
2022/08/17 01:19:09;;;;;;;11.88;9.48;;;19.40;99.90;;;;;;5069916;28;20020;-48
2022/08/17 01:21:49;;;;;;;11.30;10.18;;;19.40;99.90;;;;;;5070549;28;20025;-46
2022/08/17 01:24:16;;;;;;;10.90;9.80;;;19.40;99.90;;;;;;5068336;28;20029;-46
2022/08/17 01:26:43;;;;;;;10.70;9.65;;;19.40;99.90;;;;;;5079323;28;20475;-45
2022/08/17 01:29:10;;;;;;;12.48;10.60;;;19.40;99.90;;;;;;5087337;28;20043;-46
2022/08/17 01:31:44;;;;;;;12.15;9.63;;;19.30;99.90;;;;;;5090299;28;20372;-47
2022/08/17 01:34:11;;;;;;;11.05;9.93;;;19.30;99.90;;;;;;5091072;28;20024;-48
2022/08/17 01:36:39;;;;;;;10.27;9.25;;;19.20;99.90;;;;;;5090953;28;20031;-46
2022/08/17 01:39:07;;;;;;;11.23;10.02;;;19.20;99.90;;;;;;5089470;28;20620;-46
2022/08/17 01:41:34;;;;;;;10.65;9.50;;;19.20;99.90;;;;;;5088724;28;20459;-46
2022/08/17 01:44:03;;;;;;;13.52;10.65;;;19.10;99.90;;;;;;5090761;28;20032;-45
2022/08/17 01:46:32;;;;;;;14.73;10.48;;;19.10;99.90;;;;;;5089452;28;20070;-45
2022/08/17 01:48:59;;;;;;;11.90;10.70;;;19.20;99.90;;;;;;5090718;28;20388;-47
2022/08/17 01:51:31;;;;;;;11.38;10.27;;;19.20;99.90;;;;;;5090292;28;20411;-45
2022/08/17 01:53:59;;;;;;;11.63;10.48;;;19.20;99.90;;;;;;5090833;28;20039;-47
2022/08/17 01:56:27;;;;;;;13.75;10.32;;;19.10;99.90;;;;;;5080334;28;20024;-45
2022/08/17 01:58:52;;;;;;;14.45;10.38;;;19.10;99.90;;;;;;5084648;28;20073;-47
2022/08/17 02:01:21;;;;;;;12.15;10.20;;;19.10;99.90;;;;;;5089889;28;20051;-45
2022/08/17 02:03:47;;;;;;;13.70;10.25;;;19.00;99.90;;;;;;5090766;28;20428;-46
2022/08/17 02:06:12;;;;;;;11.18;10.07;;;19.00;99.90;;;;;;5090629;28;20032;-46
2022/08/17 02:08:38;;;;;;;11.50;10.40;;;18.90;99.90;;;;;;5084373;28;20047;-46
2022/08/17 02:11:07;;;;;;;11.43;10.27;;;18.90;99.90;;;;;;5069744;28;20020;-45
2022/08/17 02:13:33;;;;;;;13.88;10.80;;;18.90;99.90;;;;;;5069801;28;20025;-45
2022/08/17 02:15:59;;;;;;;13.30;10.93;;;18.80;99.90;;;;;;5068951;28;20352;-46
2022/08/17 02:18:26;;;;;;;12.02;10.65;;;18.80;99.90;;;;;;5069808;28;20487;-46
2022/08/17 02:20:53;;;;;;;12.68;11.15;;;18.80;99.90;;;;;;5069319;28;20111;-46
2022/08/17 02:23:21;;;;;;;12.50;11.18;;;18.70;99.90;;;;;;5070118;28;20017;-46
2022/08/17 02:25:48;;;;;;;12.45;11.15;;;18.70;99.90;;;;;;5067479;28;20024;-46
2022/08/17 02:28:14;;;;;;;12.82;11.02;;;18.70;99.90;;;;;;5079583;28;20279;-46
2022/08/17 02:30:40;;;;;;;11.82;10.65;;;18.60;99.90;;;;;;5077964;28;20268;-46
2022/08/17 02:33:07;;;;;;;13.00;10.30;;;18.60;99.90;;;;;;5072851;28;20028;-45
2022/08/17 02:35:34;;;;;;;14.60;12.23;;;18.60;99.90;;;;;;5067615;28;20028;-46
2022/08/17 02:38:00;;;;;;;12.05;10.90;;;18.50;99.90;;;;;;5069624;28;20667;-45
2022/08/17 02:40:26;;;;;;;14.10;12.32;;;18.50;99.90;;;;;;5069394;28;20020;-46
2022/08/17 02:42:51;;;;;;;13.43;11.27;;;18.50;99.90;;;;;;5068931;28;20031;-46
2022/08/17 02:45:21;;;;;;;16.20;11.70;;;18.50;99.90;;;;;;5068064;28;20020;-47
2022/08/17 02:47:49;;;;;;;15.00;11.13;;;18.50;99.90;;;;;;5068023;28;20160;-46
2022/08/17 02:50:17;;;;;;;14.00;12.60;;;18.50;99.90;;;;;;5069763;28;20494;-46
2022/08/17 02:52:45;;;;;;;14.43;12.15;;;18.50;99.90;;;;;;5068549;28;20043;-45
2022/08/17 02:55:17;;;;;;;13.07;11.65;;;18.40;99.90;;;;;;5059725;28;20528;-46
2022/08/17 02:57:43;;;;;;;13.40;11.30;;;18.40;99.90;;;;;;5070091;28;20063;-49
2022/08/17 03:00:16;;;;;;;12.55;11.02;;;18.40;99.90;;;;;;5068913;28;20081;-48
2022/08/17 03:02:43;;;;;;;15.95;12.40;;;18.40;99.90;;;;;;5071640;28;20035;-48
2022/08/17 03:05:11;;;;;;;15.52;12.32;;;18.30;99.90;;;;;;5072455;28;20040;-45
2022/08/17 03:07:37;;;;;;;14.77;12.30;;;18.30;99.90;;;;;;5068681;28;20602;-48
2022/08/17 03:10:07;;;;;;;14.57;12.10;;;18.30;99.90;;;;;;5068747;28;20032;-46
2022/08/17 03:12:36;;;;;;;16.10;12.50;;;18.30;99.90;;;;;;5068224;28;20542;-46
2022/08/17 03:15:07;;;;;;;13.85;12.45;;;18.20;99.90;;;;;;5067247;28;20036;-46
2022/08/17 03:17:33;;;;;;;15.23;12.82;;;18.20;99.90;;;;;;5068663;28;20119;-46
2022/08/17 03:19:58;;;;;;;15.10;13.50;;;18.20;99.90;;;;;;5068773;28;20108;-45
2022/08/17 03:22:27;;;;;;;14.15;12.75;;;18.10;99.90;;;;;;5067669;28;20024;-47
2022/08/17 03:24:53;;;;;;;14.45;12.95;;;18.10;99.90;;;;;;5067312;28;20020;-45
2022/08/17 03:27:19;;;;;;;16.30;14.02;;;18.20;99.90;;;;;;5072570;28;20032;-46
2022/08/17 03:29:44;;;;;;;18.52;13.60;;;18.20;99.90;;;;;;5068659;28;20476;-45
2022/08/17 03:32:14;;;;;;;14.30;12.90;;;18.20;99.90;;;;;;5068022;28;20035;-48
2022/08/17 03:34:41;;;;;;;14.80;12.40;;;18.20;99.90;;;;;;5068533;28;20166;-46
2022/08/17 03:37:07;;;;;;;14.15;12.57;;;18.10;99.90;;;;;;5068681;28;20287;-46
2022/08/17 03:39:33;;;;;;;16.10;11.93;;;18.10;99.90;;;;;;5068477;28;20262;-43
2022/08/17 03:42:07;;;;;;;15.02;13.38;;;18.20;99.90;;;;;;5072374;28;20093;-44
2022/08/17 03:44:33;;;;;;;15.45;13.70;;;18.20;99.90;;;;;;5076849;28;20487;-46
2022/08/17 03:57:55;;;;;;;12.88;11.57;;;18.10;99.90;;;;;;5078245;28;20042;-45
2022/08/17 04:00:21;;;;;;;13.10;11.75;;;18.00;99.90;;;;;;5078329;28;20024;-45
2022/08/17 04:02:46;;;;;;;13.98;12.48;;;18.00;99.90;;;;;;5076096;28;20025;-45
2022/08/17 04:05:13;;;;;;;16.60;12.05;;;18.10;99.90;;;;;;5075499;28;20550;-45
2022/08/17 04:07:40;;;;;;;15.43;13.57;;;18.00;99.90;;;;;;5078059;28;20056;-46
2022/08/17 04:10:06;;;;;;;13.82;12.43;;;18.00;99.90;;;;;;5076290;28;20039;-46
2022/08/17 04:12:47;;;;;;;15.43;12.75;;;18.00;99.90;;;;;;5075879;28;20020;-45
2022/08/17 04:15:13;;;;;;;13.55;12.25;;;17.90;99.90;;;;;;5065520;28;20024;-45
2022/08/17 04:17:38;;;;;;;14.18;12.70;;;17.90;99.90;;;;;;5067458;28;20051;-45
2022/08/17 04:20:04;;;;;;;13.68;12.25;;;17.90;99.90;;;;;;5067615;28;20074;-45
2022/08/17 04:22:30;;;;;;;16.63;13.75;;;17.90;99.90;;;;;;5065609;28;20479;-45
2022/08/17 04:24:56;;;;;;;14.98;12.82;;;17.90;99.90;;;;;;5064306;28;20043;-46
2022/08/17 04:27:21;;;;;;;15.82;13.30;;;18.00;99.90;;;;;;5072292;28;20028;-46
2022/08/17 04:29:47;;;;;;;15.52;13.90;;;18.00;99.90;;;;;;5066639;28;20077;-45
2022/08/17 04:32:12;;;;;;;17.00;13.43;;;18.10;99.90;;;;;;5067028;28;20029;-45
2022/08/17 04:34:38;;;;;;;13.75;12.35;;;18.10;99.90;;;;;;5070763;28;20029;-45
2022/08/17 04:37:04;;;;;;;16.15;13.73;;;18.10;99.90;;;;;;5077318;28;20023;-45
2022/08/17 04:39:30;;;;;;;15.73;13.27;;;18.20;99.90;;;;;;5079000;28;20013;-45
2022/08/17 04:42:15;;;;;;;15.10;13.27;;;18.20;99.90;;;;;;5078657;28;20024;-45
2022/08/17 04:44:42;;;;;;;15.50;12.98;;;18.20;99.90;;;;;;5077272;28;20021;-45
2022/08/17 04:47:08;;;;;;;14.43;13.02;;;18.20;99.90;;;;;;5074340;28;20024;-45
2022/08/17 04:49:33;;;;;;;17.35;14.30;;;18.30;99.90;;;;;;5071245;28;20155;-45
2022/08/17 04:51:59;;;;;;;17.30;14.18;;;18.30;99.90;;;;;;5070388;28;20036;-45
2022/08/17 04:54:25;;;;;;;14.15;12.75;;;18.30;99.90;;;;;;5071176;28;20994;-46
2022/08/17 04:56:50;;;;;;;14.00;12.50;;;18.40;99.90;;;;;;5078664;28;20392;-46
2022/08/17 04:59:21;;;;;;;18.05;15.60;;;18.40;99.90;;;;;;5087170;28;20051;-45
2022/08/17 05:01:49;;;;;;;16.92;14.65;;;18.40;99.90;;;;;;5090655;28;20491;-46
2022/08/17 05:04:21;;;;;;;15.05;13.45;;;18.50;99.90;;;;;;5077439;28;20146;-45
2022/08/17 05:06:48;;;;;;;14.95;13.35;;;18.60;99.90;;;;;;5072909;28;20048;-47
2022/08/17 05:09:16;;;;;;;15.02;12.98;;;18.60;99.90;;;;;;5066228;28;20034;-46
2022/08/17 05:11:42;;;;;;;14.55;13.05;;;18.70;99.90;;;;;;5068662;28;20097;-46
2022/08/17 05:14:08;;;;;;;13.95;12.38;;;18.70;99.90;;;;;;5070440;28;20579;-46
2022/08/17 05:16:33;;;;;;;14.35;12.93;;;18.80;99.90;;;;;;5069767;28;20036;-47
2022/08/17 05:18:59;;;;;;;16.95;13.50;;;18.90;99.90;;;;;;5069749;28;20082;-46
2022/08/17 05:21:25;;;;;;;17.70;14.02;;;18.90;99.90;;;;;;5069572;28;20059;-46
2022/08/17 05:23:51;;;;;;;15.80;14.10;;;19.00;99.90;;;;;;5069820;28;20017;-46
2022/08/17 05:26:19;;;;;;;16.42;13.80;;;19.10;99.90;;;;;;5070569;28;20444;-46
2022/08/17 05:28:45;;;;;;;17.88;14.23;;;19.10;99.90;;;;;;5074542;28;20033;-48
2022/08/17 05:31:11;;;;;;;15.43;13.68;;;19.10;99.90;;;;;;5068769;28;20040;-46
2022/08/17 05:33:38;;;;;;;14.80;13.27;;;19.20;99.90;;;;;;5069428;28;20021;-46
2022/08/17 05:36:06;;;;;;;21.88;14.80;;;19.20;99.90;;;;;;5069381;28;20032;-47
2022/08/17 05:38:32;;;;;;;20.13;15.85;;;19.30;99.90;;;;;;5069450;28;20437;-47
2022/08/17 05:40:59;;;;;;;20.77;14.57;;;19.40;99.90;;;;;;5068116;28;20074;-48
2022/08/17 05:43:27;;;;;;;16.20;13.93;;;19.40;99.90;;;;;;5070651;28;20127;-47
2022/08/17 05:46:25;;;;;;;17.58;13.25;;;19.40;99.90;;;;;;5070738;28;20109;-47
2022/08/17 05:48:54;;;;;;;19.05;14.38;;;19.50;99.90;;;;;;5070730;28;20036;-47
2022/08/17 05:51:49;;;;;;;17.20;14.40;;;19.50;99.90;;;;;;5070017;28;20483;-46
2022/08/17 05:54:32;;;;;;;18.40;15.18;;;19.60;99.90;;;;;;5070586;28;20388;-46
2022/08/17 05:57:22;;;;;;;21.27;14.25;;;19.70;99.90;;;;;;5078716;28;20021;-46
2022/08/17 06:00:11;;;;;;;18.63;14.80;;;19.80;99.90;;;;;;5051353;28;20071;-46
2022/08/17 06:02:55;;;;;;;16.55;13.52;;;19.90;99.90;;;;;;5079010;28;20032;-47
2022/08/17 06:05:41;;;;;;;15.80;14.13;;;19.90;99.90;;;;;;5079960;28;20016;-49
2022/08/17 06:08:23;;;;;;;18.52;16.70;;;20.00;99.90;;;;;;5073922;28;20070;-48
2022/08/17 06:11:01;;;;;;;17.50;15.27;;;20.10;99.90;;;;;;5076139;28;20021;-46
2022/08/17 06:13:37;;;;;;;18.15;14.57;;;20.30;99.90;;;;;;5074882;28;20074;-47
2022/08/17 06:16:21;;;;;;;17.52;15.60;;;20.30;99.90;;;;;;5077821;28;20111;-46
2022/08/17 06:18:58;;;;;;;14.82;13.25;;;20.40;99.90;;;;;;5086157;28;20073;-48
2022/08/17 06:21:25;;;;;;;18.65;16.30;;;20.60;99.90;;;;;;5089598;28;20395;-46
2022/08/17 06:23:55;;;;;;;15.88;14.27;;;20.60;99.90;;;;;;5090377;28;20097;-45
2022/08/17 06:26:32;;;;;;;17.88;15.85;;;20.70;99.90;;;;;;5079660;28;20031;-47
2022/08/17 06:29:02;;;;;;;16.55;14.63;;;20.80;99.90;;;;;;5084583;28;20058;-47
2022/08/17 06:31:32;;;;;;;21.27;16.50;;;20.80;99.90;;;;;;5082327;28;20039;-47
2022/08/17 06:34:01;;;;;;;17.30;15.50;;;20.90;99.90;;;;;;5084209;28;20039;-45
2022/08/17 06:36:48;;;;;;;19.33;17.33;;;20.90;99.90;;;;;;5083829;28;20020;-44
2022/08/17 06:39:22;;;;;;;20.35;16.30;;;20.90;99.90;;;;;;5086267;28;20025;-45
2022/08/17 06:42:12;;;;;;;17.10;14.75;;;21.00;99.90;;;;;;5081704;28;20028;-45
2022/08/17 06:44:49;;;;;;;18.83;16.67;;;21.10;99.90;;;;;;5078512;28;20035;-47
2022/08/17 06:47:29;;;;;;;16.92;14.35;;;21.20;99.90;;;;;;5078383;28;20052;-45
2022/08/17 06:50:22;;;;;;;18.30;15.80;;;21.30;99.90;;;;;;5080577;28;20100;-46
2022/08/17 06:53:12;;;;;;;18.92;16.92;;;21.40;99.90;;;;;;5081017;28;20024;-46
2022/08/17 06:55:53;;;;;;;16.92;15.13;;;21.50;99.90;;;;;;5057850;28;20367;-45
2022/08/17 06:58:22;;;;;;;18.90;15.63;;;21.70;99.90;;;;;;5076209;28;20013;-46
2022/08/17 07:00:51;;;;;;;16.60;14.90;;;21.80;99.90;;;;;;5084577;28;20078;-45
2022/08/17 07:03:37;;;;;;;17.95;14.75;;;21.90;99.90;;;;;;5080787;28;20109;-45
2022/08/17 07:06:17;;;;;;;16.80;14.13;;;22.00;99.90;;;;;;5078749;28;20051;-46
2022/08/17 07:09:08;;;;;;;17.40;15.60;;;22.10;99.90;;;;;;5078328;28;20031;-46
2022/08/17 07:11:52;;;;;;;19.77;14.50;;;22.20;99.90;;;;;;5085074;28;20020;-49
2022/08/17 07:14:44;;;;;;;15.65;13.90;;;22.30;99.90;;;;;;5076056;28;20032;-47
2022/08/17 07:17:12;;;;;;;15.48;13.52;;;22.40;99.90;;;;;;5087368;28;20024;-46
2022/08/17 07:19:41;;;;;;;16.80;14.75;;;22.50;99.90;;;;;;5068719;28;20077;-45
2022/08/17 07:22:40;;;;;;;21.23;13.07;;;22.60;99.90;;;;;;5076401;28;21023;-45
2022/08/17 07:25:12;;;;;;;17.77;13.13;;;22.70;99.90;;;;;;5075974;28;20038;-46
2022/08/17 07:27:40;;;;;;;20.08;14.75;;;22.90;99.90;;;;;;5079993;28;20111;-46
2022/08/17 07:30:15;;;;;;;15.18;13.57;;;23.00;99.90;;;;;;5077091;28;20561;-48
2022/08/17 07:32:43;;;;;;;15.57;13.52;;;23.00;99.90;;;;;;5077721;28;20137;-48
2022/08/17 07:35:09;;;;;;;38.47;33.33;;;23.10;99.90;;;;;;5079001;28;20086;-46
2022/08/17 07:37:37;;;;;;;319.05;244.75;;;23.20;99.90;;;;;;5077624;28;20021;-46
2022/08/17 07:40:18;;;;;;;74.20;58.25;;;23.40;99.90;;;;;;5075555;28;20563;-46
2022/08/17 07:43:21;;;;;;;17.42;15.55;;;23.50;99.90;;;;;;5075724;28;20387;-48
2022/08/17 07:48:57;;;;;;;18.60;12.20;;;23.90;99.90;;;;;;5077072;28;20668;-45
2022/08/17 07:51:25;;;;;;;20.60;12.68;;;24.10;99.90;;;;;;5059766;28;20495;-45
2022/08/17 07:53:53;;;;;;;12.45;11.18;;;24.30;99.90;;;;;;5067046;28;20442;-47
2022/08/17 07:56:39;;;;;;;17.30;11.05;;;24.40;99.90;;;;;;5067234;28;20503;-45
2022/08/17 07:59:07;;;;;;;13.02;11.43;;;24.70;99.90;;;;;;5076438;28;20027;-45
2022/08/17 08:01:36;;;;;;;13.88;12.10;;;24.90;99.90;;;;;;5070218;28;20111;-45
2022/08/17 08:04:14;;;;;;;14.38;10.48;;;25.10;99.90;;;;;;5077984;28;20054;-47
2022/08/17 08:06:47;;;;;;;11.55;10.23;;;25.50;99.90;;;;;;5075515;28;20020;-45
2022/08/17 08:09:28;;;;;;;14.50;10.00;;;25.80;99.90;;;;;;5076005;28;20026;-45
2022/08/17 08:11:54;;;;;;;10.93;9.82;;;26.30;99.90;;;;;;5087108;28;20621;-45
2022/08/17 08:14:23;;;;;;;10.98;9.23;;;26.80;99.90;;;;;;5079706;28;20039;-46
2022/08/17 08:17:23;;;;;;;9.88;8.88;;;27.40;99.70;;;;;;5082718;28;20024;-46
2022/08/17 08:19:49;;;;;;;9.00;8.07;;;28.60;97.60;;;;;;5082338;28;20025;-46
2022/08/17 08:22:29;;;;;;;10.65;6.90;;;29.60;95.50;;;;;;5078662;28;20031;-46
2022/08/17 08:25:13;;;;;;;;;;;30.60;93.40;;;;;;5081068;28;20024;-49
2022/08/17 08:28:03;;;;;;;7.15;5.78;;;31.40;90.60;;;;;;5071187;28;20028;-46
2022/08/17 08:30:33;;;;;;;13.25;5.70;;;32.00;85.10;;;;;;5088879;28;20052;-47
2022/08/17 08:33:07;;;;;;;7.88;5.35;;;32.70;78.20;;;;;;5091179;28;20067;-46
2022/08/17 08:36:02;;;;;;;9.07;5.72;;;33.40;73.40;;;;;;5089193;28;20016;-46
2022/08/17 08:38:33;;;;;;;10.10;5.97;;;33.40;72.20;;;;;;5079164;28;20512;-46
2022/08/17 08:41:01;;;;;;;8.57;5.45;;;33.10;71.10;;;;;;5090387;28;20414;-46
2022/08/17 08:43:45;;;;;;;7.32;5.35;;;32.80;71.00;;;;;;5084412;28;20104;-47
2022/08/17 08:46:34;;;;;;;6.38;5.78;;;32.60;70.10;;;;;;5081496;28;20391;-46
2022/08/17 08:49:33;;;;;;;5.88;5.20;;;32.30;69.40;;;;;;5091887;28;20035;-45
2022/08/17 08:52:02;;;;;;;12.65;5.38;;;32.50;69.70;;;;;;5082513;28;20063;-46
2022/08/17 08:54:40;;;;;;;5.65;5.15;;;32.70;68.70;;;;;;5090189;28;20190;-46
2022/08/17 08:57:17;;;;;;;5.85;5.35;;;32.90;69.50;;;;;;5082809;28;20032;-48
2022/08/17 09:00:13;;;;;;;10.85;4.93;;;33.60;67.60;;;;;;5081425;28;20075;-47
2022/08/17 09:03:16;;;;;;;5.85;4.80;;;35.00;64.90;;;;;;5080649;28;20266;-46
2022/08/17 09:06:09;;;;;;;10.05;4.88;;;36.30;60.30;;;;;;5076993;28;20217;-46
2022/08/17 09:08:40;;;;;;;4.82;4.43;;;37.40;59.20;;;;;;5084570;28;20160;-47
2022/08/17 09:11:23;;;;;;;4.60;4.00;;;38.10;57.30;;;;;;5082684;28;20407;-48
2022/08/17 09:14:24;;;;;;;8.40;4.85;;;38.40;55.00;;;;;;5089765;28;20024;-49
2022/08/17 09:17:11;;;;;;;6.63;4.25;;;37.70;54.40;;;;;;5084458;28;20167;-46
2022/08/17 09:19:43;;;;;;;4.57;3.95;;;38.20;54.00;;;;;;5090036;28;20263;-46
2022/08/17 09:22:51;;;;;;;5.60;4.38;;;38.50;54.40;;;;;;5087780;28;20020;-46
2022/08/17 09:25:30;;;;;;;4.57;3.67;;;39.10;52.40;;;;;;5030179;28;20387;-48
2022/08/17 09:28:06;;;;;;;4.60;3.65;;;38.80;52.10;;;;;;5038084;28;20033;-49
2022/08/17 09:30:45;;;;;;;7.15;4.22;;;39.30;51.50;;;;;;5074535;28;20040;-47
2022/08/17 09:33:16;;;;;;;4.75;3.08;;;40.30;51.20;;;;;;5089654;28;20024;-48
2022/08/17 09:35:46;;;;;;;4.15;3.40;;;40.90;48.50;;;;;;5084055;28;20028;-47
2022/08/17 09:38:42;;;;;;;111.82;101.22;;;41.20;48.90;;;;;;5080823;28;20013;-47
2022/08/17 09:41:25;;;;;;;35.25;31.77;;;40.60;48.60;;;;;;5089170;28;20229;-46
2022/08/17 09:44:04;;;;;;;5.57;4.55;;;39.90;48.70;;;;;;5071853;28;20028;-50
2022/08/17 09:46:33;;;;;;;7.82;4.55;;;40.20;48.70;;;;;;5079458;28;20151;-47
2022/08/17 09:49:08;;;;;;;9.48;4.25;;;39.70;49.30;;;;;;5079819;28;20151;-47
2022/08/17 09:51:38;;;;;;;4.57;4.20;;;39.70;48.70;;;;;;5072609;28;20055;-49
2022/08/17 09:54:20;;;;;;;5.50;3.95;;;39.30;49.50;;;;;;5066570;28;20035;-49
2022/08/17 09:57:07;;;;;;;5.35;3.70;;;39.10;48.20;;;;;;5077442;28;20035;-47
2022/08/17 09:59:52;;;;;;;3.92;3.53;;;38.40;49.60;;;;;;5076653;28;20488;-47
2022/08/17 10:02:53;;;;;;;4.20;3.42;;;38.20;48.90;;;;;;5071150;28;20149;-46
2022/08/17 10:05:27;;;;;;;4.63;3.78;;;37.60;49.60;;;;;;5067206;28;20021;-46
2022/08/17 10:08:02;;;;;;;4.53;4.07;;;37.90;51.10;;;;;;5068874;28;20062;-47
2022/08/17 10:11:09;;;;;;;4.88;4.47;;;37.60;50.60;;;;;;5068037;28;20333;-47
2022/08/17 10:13:59;;;;;;;3.90;3.53;;;37.80;49.50;;;;;;5070296;28;20044;-47
2022/08/17 10:16:42;;;;;;;4.65;3.70;;;37.40;50.00;;;;;;5033128;28;1031045;-47
2022/08/17 10:19:38;;;;;;;4.22;3.25;;;37.70;48.10;;;;;;5070121;28;20038;-50
2022/08/17 10:28:00;;;;;;;2.95;2.65;;;39.50;46.90;;;;;;5077182;28;20093;-47
2022/08/17 10:30:30;;;;;;;3.30;2.97;;;39.80;47.20;;;;;;5048331;28;20021;-47
2022/08/17 10:33:03;;;;;;;7.75;3.00;;;40.70;46.10;;;;;;5071168;28;20533;-48
2022/08/17 10:35:41;;;;;;;6.05;3.08;;;41.10;45.80;;;;;;5088594;28;20027;-49
2022/08/17 10:38:29;;;;;;;5.22;2.90;;;41.50;44.50;;;;;;5077852;28;20036;-47
2022/08/17 10:41:15;;;;;;;5.22;2.75;;;41.40;44.60;;;;;;5077346;28;20016;-48
2022/08/17 10:44:22;;;;;;;5.60;3.45;;;41.90;44.10;;;;;;5089480;28;20032;-47
2022/08/17 10:47:06;;;;;;;4.30;2.90;;;42.20;44.00;;;;;;5089179;28;20020;-47
2022/08/17 10:49:34;;;;;;;7.53;3.33;;;42.10;42.70;;;;;;5089410;28;20491;-48
2022/08/17 10:52:22;;;;;;;4.53;2.93;;;41.60;42.70;;;;;;5086397;28;20399;-48
2022/08/17 10:55:04;;;;;;;4.50;3.42;;;41.30;42.80;;;;;;5086484;28;20299;-47
2022/08/17 10:57:33;;;;;;;4.75;3.20;;;41.20;44.20;;;;;;5085312;28;20432;-48
2022/08/17 11:00:00;;;;;;;6.95;2.85;;;40.50;43.80;;;;;;5087378;28;20166;-47
2022/08/17 11:02:39;;;;;;;7.13;2.97;;;41.10;44.40;;;;;;5083495;28;20436;-48
2022/08/17 11:05:27;;;;;;;4.78;3.22;;;41.40;43.30;;;;;;5087514;28;20048;-48
2022/08/17 11:08:28;;;;;;;3.30;3.00;;;42.40;42.30;;;;;;5077444;28;20439;-47
2022/08/17 11:11:16;;;;;;;7.72;2.88;;;43.50;40.60;;;;;;5075433;28;20486;-48
2022/08/17 11:14:05;;;;;;;3.28;2.70;;;43.30;40.90;;;;;;5088733;28;20032;-50
2022/08/17 11:16:39;;;;;;;5.82;3.05;;;42.20;42.30;;;;;;5088399;28;20412;-49
2022/08/17 11:19:42;;;;;;;5.20;2.97;;;42.90;40.80;;;;;;5088337;28;20388;-48
2022/08/17 11:22:18;;;;;;;5.18;2.42;;;42.70;39.70;;;;;;5087725;28;20024;-49
2022/08/17 11:24:47;;;;;;;4.45;2.95;;;43.60;40.60;;;;;;5086386;28;20105;-48
2022/08/17 11:27:31;;;;;;;6.95;2.53;;;44.00;40.00;;;;;;5088422;28;20433;-49
2022/08/17 11:30:40;;;;;;;3.75;2.60;;;44.10;39.70;;;;;;5073096;28;20033;-50
2022/08/17 11:33:25;;;;;;;;;;;43.00;39.80;;;;;;5045766;28;20047;-47
2022/08/17 11:36:14;;;;;;;3.05;2.70;;;41.60;40.90;;;;;;5047655;28;19905;-50
2022/08/17 11:38:45;;;;;;;;;;;41.40;44.10;;;;;;5048089;28;20029;-49
2022/08/17 11:41:25;;;;;;;3.40;2.80;;;40.50;42.20;;;;;;5047391;28;20298;-48
2022/08/17 11:44:14;;;;;;;5.47;3.15;;;39.30;43.40;;;;;;5047287;28;20170;-48
2022/08/17 11:53:37;;;;;;;4.43;3.40;;;37.50;45.20;;;;;;5070165;28;20038;-48
2022/08/17 11:56:03;;;;;;;4.35;2.50;;;38.50;44.90;;;;;;5071293;28;20028;-48
2022/08/17 11:58:28;;;;;;;4.57;2.58;;;39.80;43.70;;;;;;5081582;28;20026;-48
2022/08/17 12:00:59;;;;;;;2.67;2.40;;;41.20;42.10;;;;;;5084333;28;20093;-48
2022/08/17 12:03:30;;;;;;;8.07;2.35;;;41.50;42.60;;;;;;5080342;28;20016;-49
2022/08/17 12:06:04;;;;;;;5.38;2.83;;;41.80;41.50;;;;;;5084042;28;20103;-49
2022/08/17 12:08:32;;;;;;;4.45;2.90;;;41.60;41.50;;;;;;5081266;28;20095;-50
2022/08/17 12:11:06;;;;;;;2.75;2.53;;;42.30;41.30;;;;;;5085503;28;20023;-47
2022/08/17 12:13:41;;;;;;;3.85;2.45;;;42.30;40.90;;;;;;5080108;28;20024;-47
2022/08/17 12:16:12;;;;;;;4.50;2.78;;;41.90;40.90;;;;;;5087203;28;20493;-48
2022/08/17 12:18:40;;;;;;;4.15;2.92;;;39.80;41.10;;;;;;5073599;28;20089;-49
2022/08/17 12:21:37;;;;;;;4.50;2.70;;;39.10;43.60;;;;;;5087673;28;20020;-47
2022/08/17 12:24:22;;;;;;;3.42;2.83;;;38.90;43.70;;;;;;5080863;28;20028;-47
2022/08/17 12:27:00;;;;;;;3.33;2.50;;;38.10;44.10;;;;;;5081639;28;20112;-47
2022/08/17 12:29:28;;;;;;;3.70;3.20;;;37.90;44.80;;;;;;5081437;28;20116;-46
2022/08/17 12:31:53;;;;;;;4.43;3.00;;;38.10;45.20;;;;;;5088990;28;20034;-47
2022/08/17 12:34:28;;;;;;;4.25;3.17;;;38.10;45.30;;;;;;5079204;28;20381;-47
2022/08/17 12:37:03;;;;;;;6.05;2.92;;;38.10;45.40;;;;;;5089322;28;20036;-47
2022/08/17 12:39:29;;;;;;;5.40;2.78;;;38.30;45.20;;;;;;5083936;28;20035;-48
2022/08/17 12:41:57;;;;;;;4.32;2.90;;;38.00;45.70;;;;;;5082316;28;20027;-50
2022/08/17 12:44:32;;;;;;;42.67;36.90;;;37.40;46.20;;;;;;5081394;28;20402;-48
2022/08/17 12:47:17;;;;;;;13.55;10.88;;;37.30;45.30;;;;;;5080519;28;20071;-47
2022/08/17 12:49:47;;;;;;;5.60;2.72;;;37.20;45.10;;;;;;5081724;28;20028;-46
2022/08/17 12:52:18;;;;;;;8.45;3.00;;;37.30;44.80;;;;;;5079693;28;20054;-46
2022/08/17 12:55:04;;;;;;;4.82;3.03;;;37.40;45.10;;;;;;5087980;28;20024;-47
2022/08/17 12:57:33;;;;;;;4.53;3.20;;;37.40;44.50;;;;;;5079889;28;20025;-50
2022/08/17 13:00:21;;;;;;;3.20;2.55;;;37.10;44.40;;;;;;5086770;28;20037;-48
2022/08/17 13:03:21;;;;;;;4.25;3.03;;;36.90;45.20;;;;;;5073166;28;20119;-47
2022/08/17 13:06:08;;;;;;;4.20;3.08;;;36.90;44.60;;;;;;5073031;28;20586;-47
2022/08/17 13:08:45;;;;;;;5.05;2.58;;;37.00;45.00;;;;;;5083948;28;20024;-50
2022/08/17 13:11:14;;;;;;;5.82;2.63;;;36.90;44.60;;;;;;5070137;28;20376;-47
2022/08/17 13:13:42;;;;;;;;;;;36.60;44.00;;;;;;5079659;28;20019;-48
2022/08/17 13:16:10;;;;;;;2.80;2.60;;;36.20;45.80;;;;;;5068717;28;19909;-48
2022/08/17 13:18:44;;;;;;;5.30;3.10;;;36.50;45.70;;;;;;5080858;28;20681;-48
2022/08/17 13:21:26;;;;;;;7.18;3.05;;;36.40;44.70;;;;;;5071369;28;20016;-46
2022/08/17 13:24:00;;;;;;;7.60;3.08;;;36.60;44.30;;;;;;5074907;28;20587;-47
2022/08/17 13:26:58;;;;;;;4.00;2.80;;;36.70;45.10;;;;;;5084063;28;20031;-50
2022/08/17 13:29:31;;;;;;;5.30;2.58;;;36.60;45.80;;;;;;5083321;28;20520;-49
2022/08/17 13:32:03;;;;;;;5.05;2.75;;;36.60;44.40;;;;;;5083364;28;20024;-48
2022/08/17 13:34:28;;;;;;;6.68;2.78;;;36.80;45.60;;;;;;5092388;28;20451;-47
2022/08/17 13:37:25;;;;;;;7.65;3.15;;;36.90;44.90;;;;;;5080265;28;20036;-48
2022/08/17 13:40:09;;;;;;;4.30;3.15;;;36.90;44.20;;;;;;5073731;28;20107;-48